Newry, United Kingdom
Current Conditions -  °F | °C
As of 10:20 PM on Tuesday 21 Oct 2014 (Local Time) from EGAA Reporting Station
Broken Clouds Broken Clouds  
Wind Chill: 39°   Ceiling: 4100
Heat Index: 46°   Visibility: 6mi
Dew Point: 41°   Wind: 17mph
Humidity: 81%   Direction: 280°W
Pressure: 30.12"   Gusts: NA
Location:  54.18°N, 6.34°W
Report Text: EGAA 212120Z 28015KT 9999 SCT035 BKN041 08/05 Q1020
Loading
Personal Weather Stations






























Interactive Weather Map
Tropical Storm Tracking
New forecast layout! Learn more

10-Day Weather Forecast

Advertisements
Track Severe Weather on mobile